createdAt,value
2023-05-24T00:00:52.957Z,97337.53
2023-05-24T00:03:58.686Z,97339.31
2023-05-24T00:07:03.272Z,97340.91
2023-05-24T00:10:08.587Z,97331.28
2023-05-24T00:13:12.845Z,97344.84
2023-05-24T00:16:16.627Z,97345.50
2023-05-24T00:19:21.281Z,97352.91
2023-05-24T00:22:27.772Z,97351.72
2023-05-24T00:25:42.631Z,97353.44
2023-05-24T00:28:46.637Z,97348.63
2023-05-24T00:31:50.783Z,97350.94
2023-05-24T00:34:55.442Z,97348.19
2023-05-24T00:38:00.011Z,97348.81
2023-05-24T00:41:06.830Z,97334.97
2023-05-24T00:44:14.422Z,97339.78
2023-05-24T00:47:18.532Z,97340.88
2023-05-24T00:50:22.933Z,97335.75
2023-05-24T00:53:27.417Z,97342.25
2023-05-24T00:56:31.897Z,97330.97
2023-05-24T00:59:36.777Z,97343.00
2023-05-24T01:02:41.009Z,97339.47
2023-05-24T01:05:46.250Z,97337.94
2023-05-24T01:08:51.395Z,97343.44
2023-05-24T01:11:55.637Z,97345.97
2023-05-24T01:15:00.998Z,97346.28
2023-05-24T01:18:09.423Z,97344.28
2023-05-24T01:21:17.935Z,97352.75
2023-05-24T01:24:22.273Z,97350.25
2023-05-24T01:30:34.156Z,97357.25
2023-05-24T01:33:38.597Z,97345.50
2023-05-24T01:36:47.340Z,97349.41
2023-05-24T01:39:52.813Z,97363.31
2023-05-24T01:42:58.734Z,97357.81
2023-05-24T01:46:02.897Z,97354.09
2023-05-24T01:49:08.147Z,97361.13
2023-05-24T01:52:13.715Z,97357.94
2023-05-24T01:55:19.259Z,97364.53
2023-05-24T01:58:23.663Z,97364.50
2023-05-24T02:01:28.951Z,97369.25
2023-05-24T02:04:34.568Z,97363.44
2023-05-24T02:07:38.743Z,97365.16
2023-05-24T02:10:44.455Z,97365.88
2023-05-24T02:13:48.943Z,97363.16
2023-05-24T02:16:52.814Z,97358.41
2023-05-24T02:19:57.317Z,97374.06
2023-05-24T02:23:01.184Z,97367.53
2023-05-24T02:26:05.891Z,97365.69
2023-05-24T02:29:10.358Z,97358.53
2023-05-24T02:32:18.853Z,97353.34
2023-05-24T02:35:24.413Z,97350.28
2023-05-24T02:38:29.881Z,97343.66
2023-05-24T02:41:34.477Z,97351.66
2023-05-24T02:44:45.509Z,97349.69
2023-05-24T02:47:49.902Z,97346.94
2023-05-24T02:50:54.361Z,97352.84
2023-05-24T02:53:59.949Z,97358.56
2023-05-24T03:00:10.657Z,97353.00
2023-05-24T03:03:15.482Z,97355.66
2023-05-24T03:06:20.019Z,97352.78
2023-05-24T03:09:24.293Z,97351.41
2023-05-24T03:12:30.041Z,97369.81
2023-05-24T03:15:35.572Z,97362.78
2023-05-24T03:18:50.401Z,97369.03
2023-05-24T03:21:54.670Z,97358.13
2023-05-24T03:25:00.274Z,97366.28
2023-05-24T03:28:04.619Z,97362.53
2023-05-24T03:34:32.503Z,97373.63
2023-05-24T03:37:38.044Z,97368.97
2023-05-24T03:40:43.103Z,97371.50
2023-05-24T03:43:47.082Z,97371.50
2023-05-24T03:46:51.144Z,97378.69
2023-05-24T03:49:55.314Z,97378.16
2023-05-24T03:53:00.714Z,97367.16
2023-05-24T03:56:04.526Z,97374.91
2023-05-24T03:59:08.882Z,97370.69
2023-05-24T04:02:13.177Z,97376.72
2023-05-24T04:08:26.849Z,97379.06
2023-05-24T04:11:31.251Z,97377.88
2023-05-24T04:14:35.885Z,97375.63
2023-05-24T04:17:41.018Z,97378.56
2023-05-24T04:20:45.286Z,97379.59
2023-05-24T04:23:50.664Z,97373.38
2023-05-24T04:26:55.098Z,97377.25
2023-05-24T04:29:59.081Z,97376.94
2023-05-24T04:33:04.494Z,97374.25
2023-05-24T04:36:10.791Z,97365.69
2023-05-24T04:39:14.762Z,97363.25
2023-05-24T04:42:30.245Z,97360.78
2023-05-24T04:45:35.659Z,97363.44
2023-05-24T04:48:39.834Z,97361.59
2023-05-24T04:51:45.400Z,97363.59
2023-05-24T04:58:14.089Z,97365.09
2023-05-24T05:01:20.146Z,97368.84
2023-05-24T05:04:27.609Z,97368.19
2023-05-24T05:07:31.878Z,97369.19
2023-05-24T05:10:36.065Z,97376.63
2023-05-24T05:13:43.698Z,97371.53
2023-05-24T05:16:47.877Z,97374.47
2023-05-24T05:19:51.735Z,97375.03
2023-05-24T05:22:58.791Z,97378.63
2023-05-24T05:26:06.019Z,97376.63
2023-05-24T05:29:10.014Z,97375.72
2023-05-24T05:32:14.173Z,97385.94
2023-05-24T05:35:18.210Z,97384.09
2023-05-24T05:38:24.445Z,97379.75
2023-05-24T05:41:28.586Z,97379.38
2023-05-24T05:44:32.395Z,97385.09
2023-05-24T05:47:37.588Z,97382.97
2023-05-24T05:50:42.706Z,97381.59
2023-05-24T05:53:46.930Z,97383.56
2023-05-24T06:00:13.930Z,97381.59
2023-05-24T06:03:17.905Z,97376.25
2023-05-24T06:06:22.093Z,97385.25
2023-05-24T06:09:27.168Z,97376.41
2023-05-24T06:12:32.800Z,97375.28
2023-05-24T06:15:36.934Z,97376.13
2023-05-24T06:18:43.167Z,97379.75
2023-05-24T06:21:51.605Z,97380.97
2023-05-24T06:24:56.898Z,97384.66
2023-05-24T06:28:03.365Z,97388.75
2023-05-24T06:31:07.743Z,97381.44
2023-05-24T06:34:14.245Z,97387.84
2023-05-24T06:37:20.890Z,97389.53
2023-05-24T06:40:24.914Z,97380.94
2023-05-24T06:43:31.198Z,97381.56
2023-05-24T06:46:35.535Z,97387.19
2023-05-24T06:49:40.930Z,97394.91
2023-05-24T06:52:46.926Z,97398.00
2023-05-24T06:55:56.944Z,97404.00
2023-05-24T06:59:03.106Z,97404.25
2023-05-24T07:02:09.841Z,97400.13
2023-05-24T07:08:36.270Z,97396.00
2023-05-24T07:11:50.778Z,97396.75
2023-05-24T07:14:58.121Z,97388.75
2023-05-24T07:18:02.703Z,97393.94
2023-05-24T07:21:06.860Z,97402.25
2023-05-24T07:24:12.640Z,97402.88
2023-05-24T07:27:20.878Z,97396.44
2023-05-24T07:34:11.158Z,97395.97
2023-05-24T07:37:20.042Z,97396.38
2023-05-24T07:40:28.359Z,97393.59
2023-05-24T07:43:37.065Z,97403.09
2023-05-24T07:46:46.406Z,97406.28
2023-05-24T07:56:37.205Z,97397.69
2023-05-24T08:03:04.678Z,97395.09
2023-05-24T08:06:10.477Z,97399.38
2023-05-24T08:09:14.639Z,97405.34
2023-05-24T08:12:20.132Z,97400.84
2023-05-24T08:15:24.326Z,97406.53
2023-05-24T08:18:32.505Z,97409.81
2023-05-24T08:21:40.811Z,97409.78
2023-05-24T08:24:47.849Z,97415.78
2023-05-24T08:27:52.274Z,97413.03
2023-05-24T08:31:01.051Z,97420.56
2023-05-24T08:34:05.404Z,97409.22
2023-05-24T08:37:09.616Z,97409.03
2023-05-24T08:43:46.132Z,97418.06
2023-05-24T08:46:51.834Z,97414.28
2023-05-24T08:53:22.414Z,97424.25
2023-05-24T08:56:30.606Z,97428.03
2023-05-24T08:59:23.980Z,97424.38
2023-05-24T09:00:16.125Z,97431.53
2023-05-24T09:03:31.801Z,97435.47
2023-05-24T09:09:59.225Z,97436.13
2023-05-24T09:12:14.895Z,97435.97
2023-05-24T09:13:09.753Z,97438.25
2023-05-24T09:16:16.119Z,97445.63
2023-05-24T09:19:29.116Z,97447.13
2023-05-24T09:22:34.644Z,97445.78
2023-05-24T09:25:40.890Z,97446.66
2023-05-24T09:28:45.266Z,97439.84
2023-05-24T09:31:52.720Z,97439.81
2023-05-24T09:34:57.257Z,97432.31
2023-05-24T09:38:51.632Z,97432.19
2023-05-24T09:41:44.850Z,97443.63
2023-05-24T09:48:17.944Z,97442.75
2023-05-24T09:51:38.039Z,97448.00
2023-05-24T09:58:11.959Z,97450.06
2023-05-24T10:01:19.667Z,97441.00
2023-05-24T10:04:25.452Z,97441.03
2023-05-24T10:07:30.173Z,97445.50
2023-05-24T10:10:34.300Z,97450.44
2023-05-24T10:13:40.739Z,97442.28
2023-05-24T10:16:44.814Z,97442.31
2023-05-24T10:19:48.911Z,97438.31
2023-05-24T10:22:53.594Z,97430.84
2023-05-24T10:25:58.378Z,97438.75
2023-05-24T10:29:02.256Z,97441.22
2023-05-24T10:32:05.929Z,97429.63
2023-05-24T10:35:09.755Z,97429.50
2023-05-24T10:38:14.567Z,97429.88
2023-05-24T10:41:19.799Z,97438.66
2023-05-24T10:44:28.723Z,97440.19
2023-05-24T10:47:38.900Z,97430.41
2023-05-24T10:54:08.900Z,97438.97
2023-05-24T10:57:17.802Z,97440.66
2023-05-24T11:00:33.813Z,97436.53
2023-05-24T11:03:40.905Z,97428.53
2023-05-24T11:06:45.338Z,97434.06
2023-05-24T11:09:50.652Z,97435.81
2023-05-24T11:12:57.903Z,97436.69
2023-05-24T11:16:04.745Z,97428.44
2023-05-24T11:19:09.342Z,97430.47
2023-05-24T11:22:12.999Z,97419.09
2023-05-24T11:25:17.145Z,97428.09
2023-05-24T11:28:20.976Z,97433.38
2023-05-24T11:31:25.472Z,97429.50
2023-05-24T11:34:41.590Z,97417.16
2023-05-24T11:37:46.680Z,97408.19
2023-05-24T11:40:50.974Z,97406.03
2023-05-24T11:43:54.881Z,97400.72
2023-05-24T11:46:58.858Z,97405.88
2023-05-24T11:50:02.823Z,97406.69
2023-05-24T11:53:06.745Z,97402.19
2023-05-24T11:56:10.743Z,97392.03
2023-05-24T11:59:14.921Z,97387.19
2023-05-24T12:02:18.977Z,97395.47
2023-05-24T12:05:26.968Z,97380.97
2023-05-24T12:08:31.252Z,97379.44
2023-05-24T12:11:37.496Z,97373.38
2023-05-24T12:14:41.584Z,97370.00
2023-05-24T12:21:09.016Z,97362.56
2023-05-24T12:24:13.416Z,97369.50
2023-05-24T12:27:17.768Z,97368.22
2023-05-24T12:30:21.781Z,97365.66
2023-05-24T12:33:26.170Z,97369.13
2023-05-24T12:36:30.085Z,97363.25
2023-05-24T12:39:34.183Z,97374.50
2023-05-24T12:42:38.551Z,97372.91
2023-05-24T12:45:42.356Z,97376.53
2023-05-24T12:48:51.816Z,97374.66
2023-05-24T12:51:55.933Z,97374.28
2023-05-24T12:55:00.152Z,97379.31
2023-05-24T12:58:04.159Z,97373.81
2023-05-24T13:01:08.522Z,97376.44
2023-05-24T13:04:12.403Z,97376.13
2023-05-24T13:07:16.308Z,97373.88
2023-05-24T13:10:20.642Z,97381.91
2023-05-24T13:13:24.747Z,97373.75
2023-05-24T13:16:28.863Z,97374.13
2023-05-24T13:19:32.676Z,97366.22
2023-05-24T13:22:36.658Z,97364.19
2023-05-24T13:25:43.830Z,97356.81
2023-05-24T13:29:15.075Z,97365.09
2023-05-24T13:32:12.182Z,97351.53
2023-05-24T13:35:16.403Z,97354.41
2023-05-24T13:38:20.341Z,97371.09
2023-05-24T13:41:24.173Z,97362.06
2023-05-24T13:44:28.195Z,97362.94
2023-05-24T13:47:40.022Z,97366.72
2023-05-24T13:50:45.113Z,97366.25
2023-05-24T13:53:52.118Z,97363.38
2023-05-24T13:56:56.195Z,97371.63
2023-05-24T14:00:00.364Z,97365.16
2023-05-24T14:03:05.748Z,97364.16
2023-05-24T14:06:09.788Z,97360.38
2023-05-24T14:09:14.028Z,97366.31
2023-05-24T14:12:21.347Z,97355.16
2023-05-24T14:15:25.774Z,97366.72
2023-05-24T14:18:29.681Z,97358.94
2023-05-24T14:21:33.833Z,97366.28
2023-05-24T14:24:38.023Z,97349.69
2023-05-24T14:27:42.615Z,97353.84
2023-05-24T14:30:47.127Z,97348.88
2023-05-24T14:33:50.976Z,97344.34
2023-05-24T14:36:54.955Z,97347.78
2023-05-24T14:39:59.172Z,97338.78
2023-05-24T14:43:03.320Z,97333.03
2023-05-24T14:46:07.686Z,97328.47
2023-05-24T14:49:11.742Z,97335.78
2023-05-24T14:52:15.838Z,97319.44
2023-05-24T14:55:19.795Z,97316.66
2023-05-24T14:58:23.593Z,97321.22
2023-05-24T15:01:27.527Z,97325.88
2023-05-24T15:04:31.646Z,97311.50
2023-05-24T15:07:38.092Z,97317.66
2023-05-24T15:10:42.319Z,97313.00
2023-05-24T15:13:46.527Z,97318.97
2023-05-24T15:16:50.785Z,97316.00
2023-05-24T15:19:54.821Z,97314.59
2023-05-24T15:22:59.766Z,97327.38
2023-05-24T15:26:03.780Z,97325.75
2023-05-24T15:29:07.652Z,97317.78
2023-05-24T15:32:11.711Z,97319.47
2023-05-24T15:35:15.567Z,97307.38
2023-05-24T15:38:19.788Z,97313.91
2023-05-24T15:41:23.661Z,97310.06
2023-05-24T15:44:27.661Z,97306.38
2023-05-24T15:47:31.938Z,97304.03
2023-05-24T15:50:51.891Z,97317.97
2023-05-24T15:54:00.246Z,97312.00
2023-05-24T16:00:24.399Z,97315.59
2023-05-24T16:03:28.956Z,97314.97
2023-05-24T16:06:34.635Z,97308.06
2023-05-24T16:12:59.599Z,97317.19
2023-05-24T16:16:05.739Z,97322.41
2023-05-24T16:19:11.252Z,97313.19
2023-05-24T16:22:16.874Z,97316.06
2023-05-24T16:25:21.227Z,97310.94
2023-05-24T16:28:31.736Z,97323.13
2023-05-24T16:35:25.591Z,97307.94
2023-05-24T16:39:51.694Z,97301.38
2023-05-24T16:41:56.001Z,97311.13
2023-05-24T16:45:04.418Z,97303.38
2023-05-24T16:48:08.994Z,97305.09
2023-05-24T16:51:13.733Z,97309.31
2023-05-24T16:54:18.169Z,97294.47
2023-05-24T16:57:22.119Z,97280.91
2023-05-24T17:00:33.340Z,97281.38
2023-05-24T17:03:37.807Z,97293.97
2023-05-24T17:06:42.097Z,97288.59
2023-05-24T17:09:45.915Z,97284.31
2023-05-24T17:12:49.662Z,97293.75
2023-05-24T17:15:55.024Z,97300.28
2023-05-24T17:19:03.192Z,97299.94
2023-05-24T17:22:07.742Z,97299.53
2023-05-24T17:25:13.626Z,97314.69
2023-05-24T17:28:17.758Z,97311.75
2023-05-24T17:31:21.848Z,97315.03
2023-05-24T17:34:26.428Z,97329.72
2023-05-24T17:37:30.388Z,97325.72
2023-05-24T17:40:34.609Z,97319.28
2023-05-24T17:43:42.963Z,97319.97
2023-05-24T17:46:47.170Z,97323.34
2023-05-24T17:49:51.184Z,97333.31
2023-05-24T17:52:55.136Z,97333.66
2023-05-24T17:56:00.597Z,97326.63
2023-05-24T17:59:04.993Z,97328.22
2023-05-24T18:02:09.065Z,97331.72
2023-05-24T18:05:13.351Z,97332.03
2023-05-24T18:08:17.527Z,97344.38
2023-05-24T18:11:21.806Z,97347.63
2023-05-24T18:14:26.141Z,97348.25
2023-05-24T18:17:33.672Z,97357.72
2023-05-24T18:20:39.568Z,97340.06
2023-05-24T18:23:44.130Z,97346.03
2023-05-24T18:26:48.946Z,97351.91
2023-05-24T18:29:52.951Z,97345.16
2023-05-24T18:33:05.497Z,97339.19
2023-05-24T18:36:13.923Z,97364.81
2023-05-24T18:39:18.006Z,97342.78
2023-05-24T18:42:22.118Z,97355.03
2023-05-24T18:45:26.256Z,97350.94
2023-05-24T18:48:30.398Z,97358.22
2023-05-24T18:51:38.631Z,97353.28
2023-05-24T18:54:42.587Z,97353.03
2023-05-24T18:57:46.292Z,97348.78
2023-05-24T19:00:51.572Z,97343.78
2023-05-24T19:03:55.812Z,97348.84
2023-05-24T19:07:00.256Z,97351.47
2023-05-24T19:10:04.414Z,97349.63
2023-05-24T19:13:08.502Z,97354.13
2023-05-24T19:16:12.523Z,97340.94
2023-05-24T19:19:16.246Z,97349.94
2023-05-24T19:22:20.251Z,97340.63
2023-05-24T19:25:25.598Z,97353.13
2023-05-24T19:28:31.444Z,97348.06
2023-05-24T19:31:35.456Z,97348.59
2023-05-24T19:34:39.340Z,97349.66
2023-05-24T19:37:43.204Z,97347.03
2023-05-24T19:40:47.083Z,97332.94
2023-05-24T19:43:51.098Z,97353.09
2023-05-24T19:46:55.158Z,97361.06
2023-05-24T19:49:59.192Z,97353.66
2023-05-24T19:53:02.964Z,97364.81
2023-05-24T19:56:06.776Z,97360.31
2023-05-24T19:59:11.749Z,97359.78
2023-05-24T20:02:15.826Z,97365.59
2023-05-24T20:05:20.078Z,97360.56
2023-05-24T20:08:24.034Z,97348.59
2023-05-24T20:11:28.244Z,97353.38
2023-05-24T20:14:34.567Z,97369.50
2023-05-24T20:17:38.720Z,97357.06
2023-05-24T20:20:43.812Z,97374.84
2023-05-24T20:23:48.236Z,97366.56
2023-05-24T20:30:14.414Z,97362.31
2023-05-24T20:33:18.501Z,97375.56
2023-05-24T20:36:22.552Z,97359.66
2023-05-24T20:39:26.220Z,97361.81
2023-05-24T20:42:30.121Z,97364.47
2023-05-24T20:45:34.703Z,97359.47
2023-05-24T20:48:38.645Z,97364.69
2023-05-24T20:51:44.377Z,97350.31
2023-05-24T20:54:48.715Z,97373.63
2023-05-24T20:58:11.141Z,97361.69
2023-05-24T21:01:15.838Z,97353.53
2023-05-24T21:04:20.198Z,97350.94
2023-05-24T21:07:24.350Z,97346.97
2023-05-24T21:10:29.001Z,97346.13
2023-05-24T21:13:33.141Z,97354.34
2023-05-24T21:16:37.654Z,97349.34
2023-05-24T21:19:44.055Z,97373.59
2023-05-24T21:22:51.584Z,97350.50
2023-05-24T21:25:55.346Z,97351.13
2023-05-24T21:29:00.576Z,97347.25
2023-05-24T21:32:04.714Z,97328.88
2023-05-24T21:35:08.938Z,97346.63
2023-05-24T21:38:13.073Z,97343.13
2023-05-24T21:41:18.444Z,97348.00
2023-05-24T21:44:23.077Z,97346.44
2023-05-24T21:47:27.596Z,97345.00
2023-05-24T21:50:32.004Z,97347.03
2023-05-24T21:53:36.321Z,97349.91
2023-05-24T21:56:41.321Z,97338.72
2023-05-24T21:59:45.548Z,97345.41
2023-05-24T22:02:49.532Z,97344.25
2023-05-24T22:05:55.140Z,97334.50
2023-05-24T22:08:59.508Z,97323.25
2023-05-24T22:12:04.496Z,97320.06
2023-05-24T22:15:14.546Z,97325.28
2023-05-24T22:18:18.559Z,97327.72
2023-05-24T22:21:22.802Z,97335.63
2023-05-24T22:24:27.274Z,97326.97
2023-05-24T22:27:34.577Z,97329.59
2023-05-24T22:30:39.002Z,97334.53
2023-05-24T22:33:42.915Z,97319.09
2023-05-24T22:36:49.861Z,97320.44
2023-05-24T22:39:54.296Z,97317.56
2023-05-24T22:42:58.137Z,97318.34
2023-05-24T22:46:02.266Z,97327.66
2023-05-24T22:49:06.236Z,97335.44
2023-05-24T22:52:09.969Z,97323.09
2023-05-24T22:55:16.966Z,97322.31
2023-05-24T22:58:21.390Z,97334.19
2023-05-24T23:01:26.988Z,97318.91
2023-05-24T23:04:33.768Z,97321.66
2023-05-24T23:07:38.817Z,97316.50
2023-05-24T23:10:46.179Z,97312.53
2023-05-24T23:13:54.521Z,97317.34
2023-05-24T23:17:00.153Z,97322.19
2023-05-24T23:20:07.307Z,97311.13
2023-05-24T23:23:14.872Z,97319.94
2023-05-24T23:36:37.567Z,97323.75
2023-05-24T23:39:50.658Z,97332.97
2023-05-24T23:46:32.148Z,97319.75
2023-05-24T23:49:36.464Z,97323.63
2023-05-24T23:52:43.769Z,97307.75
2023-05-24T23:59:13.793Z,97304.72
